This is the latest recevied weather packets stored in our database for station/object JS2QVS-13. If no packets are shown the sender has not sent any weather packets the latest 1 day(s).
| Time | Temp. | Humidity | Pressure | Rain* | Wind** | Luminosity | Snow |
|---|---|---|---|---|---|---|---|
| 1777983463 | 17.22° C | 50% | 1019.1 hPa | 0 mm | 2.68 m/s, 61° | - | - |
| 1777982863 | 17.78° C | 49% | 1018.9 hPa | 0 mm | 2.24 m/s, 59° | - | - |
| 1777982262 | 17.78° C | 49% | 1018.9 hPa | 0 mm | 2.24 m/s, 58° | - | - |
| 1777981662 | 17.78° C | 48% | 1018.7 hPa | 0 mm | 3.13 m/s, 79° | - | - |
| 1777981062 | 17.78° C | 48% | 1018.8 hPa | 0 mm | 3.13 m/s, 71° | - | - |
| 1777980462 | 17.78° C | 48% | 1018.7 hPa | 0 mm | 2.68 m/s, 63° | - | - |
| 1777979862 | 18.33° C | 48% | 1018.5 hPa | 0 mm | 2.24 m/s, 71° | - | - |
| 1777979262 | 18.33° C | 46% | 1018.5 hPa | 0 mm | 3.13 m/s, 79° | - | - |
| 1777978662 | 18.33° C | 45% | 1018.4 hPa | 0 mm | 2.68 m/s, 79° | - | - |
| 1777978062 | 18.33° C | 44% | 1018.3 hPa | 0 mm | 3.13 m/s, 85° | - | - |
| 1777977461 | 18.33° C | 48% | 1018.1 hPa | 0 mm | 2.68 m/s, 75° | - | - |
| 1777976861 | 18.33° C | 49% | 1018.1 hPa | 0 mm | 2.24 m/s, 78° | - | - |
| 1777976261 | 18.33° C | 49% | 1017.9 hPa | 0 mm | 2.68 m/s, 84° | - | - |
| 1777975661 | 18.33° C | 47% | 1017.9 hPa | 0 mm | 3.13 m/s, 76° | - | - |
| 1777975063 | 18.33° C | 44% | 1017.8 hPa | 0 mm | 3.58 m/s, 78° | - | - |
| 1777974462 | 18.33° C | 41% | 1017.8 hPa | 0 mm | 4.02 m/s, 81° | - | - |
| 1777973862 | 18.33° C | 42% | 1017.9 hPa | 0 mm | 3.58 m/s, 81° | - | - |
| 1777973262 | 18.89° C | 44% | 1017.7 hPa | 0 mm | 2.68 m/s, 78° | - | - |
| 1777972662 | 18.89° C | 44% | 1017.6 hPa | 0 mm | 2.24 m/s, 120° | - | - |
| 1777972061 | 18.89° C | 44% | 1017.6 hPa | 0 mm | 4.02 m/s, 86° | - | - |
| 1777971461 | 18.89° C | 47% | 1017.5 hPa | 0 mm | 1.34 m/s, 153° | - | - |
| 1777970861 | 18.89° C | 44% | 1017.4 hPa | 0 mm | 3.13 m/s, 88° | - | - |
| 1777970261 | 18.89° C | 44% | 1017.3 hPa | 0 mm | 1.34 m/s, 30° | - | - |
| 1777969661 | 19.44° C | 42% | 1017.4 hPa | 0 mm | 2.24 m/s, 104° | - | - |
| 1777969063 | 20° C | 41% | 1017.4 hPa | 0 mm | 2.68 m/s, 97° | - | - |
* Rain latest hour (hover to see other rain measurements)
** Current wind speed in m/s (hover to see current wind gust speed)